Syr-Dar'Ja, Uzbekistan
Current Conditions -  °F | °C
As of 1:30 PM on Friday 24 Oct 2014 (Local Time) from UTTT Reporting Station
Clear Clear  
Wind Chill: 70°   Ceiling: Unl
Heat Index: 70°   Visibility: 4mi
Dew Point: 48°   Wind: 4mph
Humidity: 46%   Direction: 290°WNW
Pressure: 30.03"   Gusts: NA
Location:  40.82°N, 68.68°E
Report Text: UTTT 240830Z 29002MPS 7000 NSC 21/09 Q1017 R08R/CLRD70 NOSIG
Loading
Personal Weather Stations






























Interactive Weather Map
Tropical Storm Tracking
New forecast layout! Learn more

10-Day Weather Forecast

Advertisements
Track Severe Weather on mobile